sensor_id;sensor_type;location;lat;lon;timestamp;P1;durP1;ratioP1;P2;durP2;ratioP2
45296;SDS011;31040;51.622;10.420;2023-07-09T00:00:20;7.82;;;4.32;;
45296;SDS011;31040;51.622;10.420;2023-07-09T00:02:50;4.85;;;4.28;;
45296;SDS011;31040;51.622;10.420;2023-07-09T00:05:18;7.78;;;4.35;;
45296;SDS011;31040;51.622;10.420;2023-07-09T00:07:45;4.90;;;4.50;;
45296;SDS011;31040;51.622;10.420;2023-07-09T00:10:17;4.57;;;3.92;;
45296;SDS011;31040;51.622;10.420;2023-07-09T00:12:44;5.20;;;4.63;;
45296;SDS011;31040;51.622;10.420;2023-07-09T00:15:13;5.03;;;4.40;;
45296;SDS011;31040;51.622;10.420;2023-07-09T00:17:42;6.30;;;5.15;;
45296;SDS011;31040;51.622;10.420;2023-07-09T00:20:13;5.45;;;4.60;;
45296;SDS011;31040;51.622;10.420;2023-07-09T00:22:41;5.97;;;4.43;;
45296;SDS011;31040;51.622;10.420;2023-07-09T00:25:14;4.97;;;4.47;;
45296;SDS011;31040;51.622;10.420;2023-07-09T00:27:43;6.38;;;4.18;;
45296;SDS011;31040;51.622;10.420;2023-07-09T00:30:19;6.57;;;5.97;;
45296;SDS011;31040;51.622;10.420;2023-07-09T00:32:49;6.35;;;4.53;;
45296;SDS011;31040;51.622;10.420;2023-07-09T00:35:18;5.55;;;4.75;;
45296;SDS011;31040;51.622;10.420;2023-07-09T00:37:46;5.03;;;4.53;;
45296;SDS011;31040;51.622;10.420;2023-07-09T00:40:15;6.80;;;4.50;;
45296;SDS011;31040;51.622;10.420;2023-07-09T00:42:44;5.40;;;4.50;;
45296;SDS011;31040;51.622;10.420;2023-07-09T00:45:17;4.85;;;4.32;;
45296;SDS011;31040;51.622;10.420;2023-07-09T00:47:49;4.13;;;3.83;;
45296;SDS011;31040;51.622;10.420;2023-07-09T00:50:21;4.60;;;4.15;;
45296;SDS011;31040;51.622;10.420;2023-07-09T00:52:55;5.35;;;4.28;;
45296;SDS011;31040;51.622;10.420;2023-07-09T00:55:23;8.95;;;4.43;;
45296;SDS011;31040;51.622;10.420;2023-07-09T00:57:53;5.20;;;4.70;;
45296;SDS011;31040;51.622;10.420;2023-07-09T01:00:29;5.03;;;4.32;;
45296;SDS011;31040;51.622;10.420;2023-07-09T01:03:04;4.68;;;4.28;;
45296;SDS011;31040;51.622;10.420;2023-07-09T01:05:32;4.47;;;4.07;;
45296;SDS011;31040;51.622;10.420;2023-07-09T01:08:00;5.57;;;4.88;;
45296;SDS011;31040;51.622;10.420;2023-07-09T01:10:27;5.57;;;4.70;;
45296;SDS011;31040;51.622;10.420;2023-07-09T01:12:55;8.18;;;6.07;;
45296;SDS011;31040;51.622;10.420;2023-07-09T01:15:22;4.85;;;4.45;;
45296;SDS011;31040;51.622;10.420;2023-07-09T01:17:49;5.35;;;4.85;;
45296;SDS011;31040;51.622;10.420;2023-07-09T01:20:20;6.00;;;4.97;;
45296;SDS011;31040;51.622;10.420;2023-07-09T01:22:48;5.78;;;4.97;;
45296;SDS011;31040;51.622;10.420;2023-07-09T01:25:16;8.52;;;5.70;;
45296;SDS011;31040;51.622;10.420;2023-07-09T01:27:44;8.00;;;5.40;;
45296;SDS011;31040;51.622;10.420;2023-07-09T01:30:35;6.63;;;5.93;;
45296;SDS011;31040;51.622;10.420;2023-07-09T01:33:01;10.43;;;7.05;;
45296;SDS011;31040;51.622;10.420;2023-07-09T01:35:30;9.40;;;7.68;;
45296;SDS011;31040;51.622;10.420;2023-07-09T01:37:59;10.80;;;6.97;;
45296;SDS011;31040;51.622;10.420;2023-07-09T01:40:27;7.75;;;6.22;;
45296;SDS011;31040;51.622;10.420;2023-07-09T01:42:59;9.10;;;6.63;;
45296;SDS011;31040;51.622;10.420;2023-07-09T01:45:27;7.05;;;6.35;;
45296;SDS011;31040;51.622;10.420;2023-07-09T01:47:55;7.53;;;6.03;;
45296;SDS011;31040;51.622;10.420;2023-07-09T01:50:23;6.18;;;5.57;;
45296;SDS011;31040;51.622;10.420;2023-07-09T01:52:51;10.63;;;6.15;;
45296;SDS011;31040;51.622;10.420;2023-07-09T01:55:19;6.63;;;5.90;;
45296;SDS011;31040;51.622;10.420;2023-07-09T01:57:47;7.25;;;6.40;;
45296;SDS011;31040;51.622;10.420;2023-07-09T02:00:17;6.30;;;5.70;;
45296;SDS011;31040;51.622;10.420;2023-07-09T02:02:45;6.82;;;5.90;;
45296;SDS011;31040;51.622;10.420;2023-07-09T02:05:15;8.00;;;7.20;;
45296;SDS011;31040;51.622;10.420;2023-07-09T02:07:42;5.80;;;5.20;;
45296;SDS011;31040;51.622;10.420;2023-07-09T02:10:10;7.70;;;4.82;;
45296;SDS011;31040;51.622;10.420;2023-07-09T02:12:38;6.10;;;5.50;;
45296;SDS011;31040;51.622;10.420;2023-07-09T02:15:06;7.28;;;5.18;;
45296;SDS011;31040;51.622;10.420;2023-07-09T02:17:33;5.93;;;4.63;;
45296;SDS011;31040;51.622;10.420;2023-07-09T02:20:01;6.25;;;5.15;;
45296;SDS011;31040;51.622;10.420;2023-07-09T02:22:30;7.43;;;5.50;;
45296;SDS011;31040;51.622;10.420;2023-07-09T02:24:57;4.82;;;4.40;;
45296;SDS011;31040;51.622;10.420;2023-07-09T02:27:24;4.88;;;4.10;;
45296;SDS011;31040;51.622;10.420;2023-07-09T02:29:52;4.95;;;4.43;;
45296;SDS011;31040;51.622;10.420;2023-07-09T02:32:25;5.82;;;4.85;;
45296;SDS011;31040;51.622;10.420;2023-07-09T02:34:53;5.20;;;4.57;;
45296;SDS011;31040;51.622;10.420;2023-07-09T02:37:22;4.53;;;4.13;;
45296;SDS011;31040;51.622;10.420;2023-07-09T02:39:49;4.72;;;4.32;;
45296;SDS011;31040;51.622;10.420;2023-07-09T02:42:17;5.13;;;4.63;;
45296;SDS011;31040;51.622;10.420;2023-07-09T02:44:45;4.38;;;3.97;;
45296;SDS011;31040;51.622;10.420;2023-07-09T02:47:13;5.53;;;4.18;;
45296;SDS011;31040;51.622;10.420;2023-07-09T02:49:40;5.68;;;4.68;;
45296;SDS011;31040;51.622;10.420;2023-07-09T02:52:08;4.72;;;4.28;;
45296;SDS011;31040;51.622;10.420;2023-07-09T02:54:36;4.82;;;4.03;;
45296;SDS011;31040;51.622;10.420;2023-07-09T02:57:03;5.53;;;4.80;;
45296;SDS011;31040;51.622;10.420;2023-07-09T02:59:31;5.75;;;4.50;;
45296;SDS011;31040;51.622;10.420;2023-07-09T03:01:59;6.00;;;5.03;;
45296;SDS011;31040;51.622;10.420;2023-07-09T03:04:27;4.93;;;4.53;;
45296;SDS011;31040;51.622;10.420;2023-07-09T03:06:54;4.80;;;4.35;;
45296;SDS011;31040;51.622;10.420;2023-07-09T03:09:22;5.13;;;4.63;;
45296;SDS011;31040;51.622;10.420;2023-07-09T03:11:49;9.27;;;4.35;;
45296;SDS011;31040;51.622;10.420;2023-07-09T03:14:16;6.53;;;4.60;;
45296;SDS011;31040;51.622;10.420;2023-07-09T03:16:44;6.78;;;4.72;;
45296;SDS011;31040;51.622;10.420;2023-07-09T03:19:11;5.80;;;4.22;;
45296;SDS011;31040;51.622;10.420;2023-07-09T03:21:39;4.55;;;4.03;;
45296;SDS011;31040;51.622;10.420;2023-07-09T03:24:07;5.05;;;4.47;;
45296;SDS011;31040;51.622;10.420;2023-07-09T03:26:35;4.85;;;4.35;;
45296;SDS011;31040;51.622;10.420;2023-07-09T03:29:03;5.82;;;4.75;;
45296;SDS011;31040;51.622;10.420;2023-07-09T03:31:30;6.47;;;4.53;;
45296;SDS011;31040;51.622;10.420;2023-07-09T03:34:01;6.75;;;4.45;;
45296;SDS011;31040;51.622;10.420;2023-07-09T03:36:29;5.07;;;4.63;;
45296;SDS011;31040;51.622;10.420;2023-07-09T03:38:56;7.88;;;4.75;;
45296;SDS011;31040;51.622;10.420;2023-07-09T03:41:24;5.22;;;4.35;;
45296;SDS011;31040;51.622;10.420;2023-07-09T03:43:52;4.82;;;4.40;;
45296;SDS011;31040;51.622;10.420;2023-07-09T03:46:20;5.13;;;4.45;;
45296;SDS011;31040;51.622;10.420;2023-07-09T03:48:48;6.40;;;4.90;;
45296;SDS011;31040;51.622;10.420;2023-07-09T03:51:17;5.10;;;4.60;;
45296;SDS011;31040;51.622;10.420;2023-07-09T03:53:44;6.70;;;4.65;;
45296;SDS011;31040;51.622;10.420;2023-07-09T03:56:12;5.32;;;4.10;;
45296;SDS011;31040;51.622;10.420;2023-07-09T03:58:39;4.97;;;4.47;;
45296;SDS011;31040;51.622;10.420;2023-07-09T04:01:07;6.20;;;4.93;;
45296;SDS011;31040;51.622;10.420;2023-07-09T04:03:34;5.13;;;4.60;;
45296;SDS011;31040;51.622;10.420;2023-07-09T04:06:01;4.93;;;4.53;;
45296;SDS011;31040;51.622;10.420;2023-07-09T04:08:29;5.32;;;4.82;;
45296;SDS011;31040;51.622;10.420;2023-07-09T04:11:00;5.45;;;4.95;;
45296;SDS011;31040;51.622;10.420;2023-07-09T04:13:28;5.72;;;5.10;;
45296;SDS011;31040;51.622;10.420;2023-07-09T04:15:56;7.70;;;4.75;;
45296;SDS011;31040;51.622;10.420;2023-07-09T04:18:23;5.82;;;4.93;;
45296;SDS011;31040;51.622;10.420;2023-07-09T04:20:51;5.57;;;4.80;;
45296;SDS011;31040;51.622;10.420;2023-07-09T04:23:19;5.60;;;4.32;;
45296;SDS011;31040;51.622;10.420;2023-07-09T04:25:46;5.47;;;4.68;;
45296;SDS011;31040;51.622;10.420;2023-07-09T04:28:14;6.93;;;4.57;;
45296;SDS011;31040;51.622;10.420;2023-07-09T04:30:48;5.97;;;4.95;;
45296;SDS011;31040;51.622;10.420;2023-07-09T04:33:17;5.32;;;4.82;;
45296;SDS011;31040;51.622;10.420;2023-07-09T04:35:45;5.00;;;4.50;;
45296;SDS011;31040;51.622;10.420;2023-07-09T04:38:13;5.75;;;4.72;;
45296;SDS011;31040;51.622;10.420;2023-07-09T04:40:40;5.53;;;4.82;;
45296;SDS011;31040;51.622;10.420;2023-07-09T04:43:08;5.20;;;4.70;;
45296;SDS011;31040;51.622;10.420;2023-07-09T04:45:35;5.50;;;4.47;;
45296;SDS011;31040;51.622;10.420;2023-07-09T04:48:03;6.32;;;4.47;;
45296;SDS011;31040;51.622;10.420;2023-07-09T04:50:30;5.47;;;4.72;;
45296;SDS011;31040;51.622;10.420;2023-07-09T04:52:58;5.40;;;4.60;;
45296;SDS011;31040;51.622;10.420;2023-07-09T04:55:26;5.40;;;4.90;;
45296;SDS011;31040;51.622;10.420;2023-07-09T04:57:53;4.95;;;4.50;;
45296;SDS011;31040;51.622;10.420;2023-07-09T05:00:21;4.80;;;4.35;;
45296;SDS011;31040;51.622;10.420;2023-07-09T05:02:48;5.03;;;4.57;;
45296;SDS011;31040;51.622;10.420;2023-07-09T05:05:16;5.80;;;4.32;;
45296;SDS011;31040;51.622;10.420;2023-07-09T05:07:44;6.70;;;4.40;;
45296;SDS011;31040;51.622;10.420;2023-07-09T05:10:11;6.20;;;4.88;;
45296;SDS011;31040;51.622;10.420;2023-07-09T05:12:51;6.30;;;5.05;;
45296;SDS011;31040;51.622;10.420;2023-07-09T05:15:19;5.53;;;5.00;;
45296;SDS011;31040;51.622;10.420;2023-07-09T05:17:50;4.88;;;4.47;;
45296;SDS011;31040;51.622;10.420;2023-07-09T05:20:18;5.40;;;4.70;;
45296;SDS011;31040;51.622;10.420;2023-07-09T05:22:47;5.40;;;4.80;;
45296;SDS011;31040;51.622;10.420;2023-07-09T05:25:15;5.38;;;4.88;;
45296;SDS011;31040;51.622;10.420;2023-07-09T05:27:42;5.05;;;4.55;;
45296;SDS011;31040;51.622;10.420;2023-07-09T05:30:10;5.07;;;4.68;;
45296;SDS011;31040;51.622;10.420;2023-07-09T05:32:37;5.65;;;4.93;;
45296;SDS011;31040;51.622;10.420;2023-07-09T05:35:05;6.97;;;5.00;;
45296;SDS011;31040;51.622;10.420;2023-07-09T05:37:33;5.07;;;4.63;;
45296;SDS011;31040;51.622;10.420;2023-07-09T05:40:00;7.07;;;5.03;;
45296;SDS011;31040;51.622;10.420;2023-07-09T05:42:27;5.38;;;4.53;;
45296;SDS011;31040;51.622;10.420;2023-07-09T05:44:55;5.38;;;4.80;;
45296;SDS011;31040;51.622;10.420;2023-07-09T05:47:22;6.28;;;4.70;;
45296;SDS011;31040;51.622;10.420;2023-07-09T05:49:50;5.22;;;4.72;;
45296;SDS011;31040;51.622;10.420;2023-07-09T05:52:18;6.40;;;5.00;;
45296;SDS011;31040;51.622;10.420;2023-07-09T05:54:46;6.63;;;5.18;;
45296;SDS011;31040;51.622;10.420;2023-07-09T05:57:13;5.57;;;4.70;;
45296;SDS011;31040;51.622;10.420;2023-07-09T05:59:41;5.97;;;5.25;;
45296;SDS011;31040;51.622;10.420;2023-07-09T06:02:11;5.82;;;4.95;;
45296;SDS011;31040;51.622;10.420;2023-07-09T06:04:39;4.90;;;4.40;;
45296;SDS011;31040;51.622;10.420;2023-07-09T06:07:07;7.20;;;5.13;;
45296;SDS011;31040;51.622;10.420;2023-07-09T06:09:35;8.52;;;5.22;;
45296;SDS011;31040;51.622;10.420;2023-07-09T06:12:03;5.50;;;5.00;;
45296;SDS011;31040;51.622;10.420;2023-07-09T06:14:32;6.25;;;4.80;;
45296;SDS011;31040;51.622;10.420;2023-07-09T06:17:00;7.53;;;5.40;;
45296;SDS011;31040;51.622;10.420;2023-07-09T06:19:27;5.72;;;5.13;;
45296;SDS011;31040;51.622;10.420;2023-07-09T06:21:55;6.07;;;5.20;;
45296;SDS011;31040;51.622;10.420;2023-07-09T06:24:23;6.15;;;4.90;;
45296;SDS011;31040;51.622;10.420;2023-07-09T06:26:50;7.45;;;5.30;;
45296;SDS011;31040;51.622;10.420;2023-07-09T06:29:18;9.40;;;5.40;;
45296;SDS011;31040;51.622;10.420;2023-07-09T06:31:46;7.50;;;5.30;;
45296;SDS011;31040;51.622;10.420;2023-07-09T06:34:13;5.32;;;4.93;;
45296;SDS011;31040;51.622;10.420;2023-07-09T06:36:41;6.07;;;5.47;;
45296;SDS011;31040;51.622;10.420;2023-07-09T06:39:09;5.47;;;4.82;;
45296;SDS011;31040;51.622;10.420;2023-07-09T06:41:37;5.70;;;4.88;;
45296;SDS011;31040;51.622;10.420;2023-07-09T06:44:09;6.13;;;5.63;;
45296;SDS011;31040;51.622;10.420;2023-07-09T06:46:36;5.25;;;4.75;;
45296;SDS011;31040;51.622;10.420;2023-07-09T06:49:04;5.18;;;4.70;;
45296;SDS011;31040;51.622;10.420;2023-07-09T06:51:34;6.57;;;5.15;;
45296;SDS011;31040;51.622;10.420;2023-07-09T06:54:02;5.97;;;5.25;;
45296;SDS011;31040;51.622;10.420;2023-07-09T06:56:31;5.70;;;5.10;;
45296;SDS011;31040;51.622;10.420;2023-07-09T06:58:58;5.70;;;5.20;;
45296;SDS011;31040;51.622;10.420;2023-07-09T07:01:26;5.75;;;5.15;;
45296;SDS011;31040;51.622;10.420;2023-07-09T07:03:53;5.30;;;4.90;;
45296;SDS011;31040;51.622;10.420;2023-07-09T07:06:21;6.38;;;5.10;;
45296;SDS011;31040;51.622;10.420;2023-07-09T07:08:48;5.90;;;5.40;;
45296;SDS011;31040;51.622;10.420;2023-07-09T07:11:15;5.57;;;4.97;;
45296;SDS011;31040;51.622;10.420;2023-07-09T07:13:43;6.28;;;5.30;;
45296;SDS011;31040;51.622;10.420;2023-07-09T07:16:11;5.40;;;4.90;;
45296;SDS011;31040;51.622;10.420;2023-07-09T07:18:39;5.97;;;5.38;;
45296;SDS011;31040;51.622;10.420;2023-07-09T07:21:06;5.43;;;4.47;;
45296;SDS011;31040;51.622;10.420;2023-07-09T07:23:34;5.57;;;5.07;;
45296;SDS011;31040;51.622;10.420;2023-07-09T07:26:01;6.55;;;5.10;;
45296;SDS011;31040;51.622;10.420;2023-07-09T07:28:30;5.82;;;5.07;;
45296;SDS011;31040;51.622;10.420;2023-07-09T07:30:58;6.07;;;5.55;;
45296;SDS011;31040;51.622;10.420;2023-07-09T07:33:26;6.38;;;4.97;;
45296;SDS011;31040;51.622;10.420;2023-07-09T07:35:53;6.78;;;5.60;;
45296;SDS011;31040;51.622;10.420;2023-07-09T07:38:41;5.50;;;4.90;;
45296;SDS011;31040;51.622;10.420;2023-07-09T07:41:08;6.10;;;5.50;;
45296;SDS011;31040;51.622;10.420;2023-07-09T07:43:37;5.63;;;5.13;;
45296;SDS011;31040;51.622;10.420;2023-07-09T07:46:05;7.22;;;5.07;;
45296;SDS011;31040;51.622;10.420;2023-07-09T07:48:33;5.60;;;5.05;;
45296;SDS011;31040;51.622;10.420;2023-07-09T07:51:01;5.13;;;4.63;;
45296;SDS011;31040;51.622;10.420;2023-07-09T07:53:30;5.88;;;5.28;;
45296;SDS011;31040;51.622;10.420;2023-07-09T07:55:58;6.72;;;5.20;;
45296;SDS011;31040;51.622;10.420;2023-07-09T07:58:28;5.90;;;4.97;;
45296;SDS011;31040;51.622;10.420;2023-07-09T08:00:56;5.13;;;4.70;;
45296;SDS011;31040;51.622;10.420;2023-07-09T08:03:24;5.00;;;4.50;;
45296;SDS011;31040;51.622;10.420;2023-07-09T08:05:52;5.85;;;5.07;;
45296;SDS011;31040;51.622;10.420;2023-07-09T08:08:19;4.95;;;4.25;;
45296;SDS011;31040;51.622;10.420;2023-07-09T08:10:49;7.40;;;5.10;;
45296;SDS011;31040;51.622;10.420;2023-07-09T08:13:17;5.32;;;4.45;;
45296;SDS011;31040;51.622;10.420;2023-07-09T08:15:45;5.70;;;4.43;;
45296;SDS011;31040;51.622;10.420;2023-07-09T08:18:13;6.90;;;4.78;;
45296;SDS011;31040;51.622;10.420;2023-07-09T08:20:44;5.60;;;4.30;;
45296;SDS011;31040;51.622;10.420;2023-07-09T08:23:11;5.13;;;4.65;;
45296;SDS011;31040;51.622;10.420;2023-07-09T08:25:39;5.45;;;4.15;;
45296;SDS011;31040;51.622;10.420;2023-07-09T08:28:06;4.30;;;3.90;;
45296;SDS011;31040;51.622;10.420;2023-07-09T08:30:34;5.05;;;4.00;;
45296;SDS011;31040;51.622;10.420;2023-07-09T08:33:02;5.05;;;4.25;;
45296;SDS011;31040;51.622;10.420;2023-07-09T08:35:29;4.30;;;3.90;;
45296;SDS011;31040;51.622;10.420;2023-07-09T08:38:02;5.47;;;4.28;;
45296;SDS011;31040;51.622;10.420;2023-07-09T08:40:30;4.45;;;4.05;;
45296;SDS011;31040;51.622;10.420;2023-07-09T08:43:10;5.60;;;5.10;;
45296;SDS011;31040;51.622;10.420;2023-07-09T08:50:38;5.10;;;4.05;;
45296;SDS011;31040;51.622;10.420;2023-07-09T08:53:09;5.45;;;4.78;;
45296;SDS011;31040;51.622;10.420;2023-07-09T08:55:41;5.68;;;4.50;;
45296;SDS011;31040;51.622;10.420;2023-07-09T08:58:11;5.63;;;4.63;;
45296;SDS011;31040;51.622;10.420;2023-07-09T09:13:59;5.25;;;4.43;;
45296;SDS011;31040;51.622;10.420;2023-07-09T09:16:30;5.18;;;4.38;;
45296;SDS011;31040;51.622;10.420;2023-07-09T09:18:59;5.43;;;4.90;;
45296;SDS011;31040;51.622;10.420;2023-07-09T09:23:58;4.63;;;4.20;;
45296;SDS011;31040;51.622;10.420;2023-07-09T09:26:34;6.45;;;4.55;;
45296;SDS011;31040;51.622;10.420;2023-07-09T09:29:13;4.90;;;4.40;;
45296;SDS011;31040;51.622;10.420;2023-07-09T09:31:53;5.53;;;4.72;;
45296;SDS011;31040;51.622;10.420;2023-07-09T09:34:28;6.32;;;4.80;;
45296;SDS011;31040;51.622;10.420;2023-07-09T09:36:57;7.28;;;4.82;;
45296;SDS011;31040;51.622;10.420;2023-07-09T09:39:25;5.80;;;4.22;;
45296;SDS011;31040;51.622;10.420;2023-07-09T09:41:53;6.95;;;5.63;;
45296;SDS011;31040;51.622;10.420;2023-07-09T09:44:24;6.15;;;5.20;;
45296;SDS011;31040;51.622;10.420;2023-07-09T09:46:52;7.25;;;5.43;;
45296;SDS011;31040;51.622;10.420;2023-07-09T09:49:20;5.60;;;5.05;;
45296;SDS011;31040;51.622;10.420;2023-07-09T09:51:48;4.70;;;4.22;;
45296;SDS011;31040;51.622;10.420;2023-07-09T09:54:24;5.40;;;4.90;;
45296;SDS011;31040;51.622;10.420;2023-07-09T09:56:53;6.18;;;4.85;;
45296;SDS011;31040;51.622;10.420;2023-07-09T09:59:21;5.95;;;5.32;;
45296;SDS011;31040;51.622;10.420;2023-07-09T10:02:01;5.25;;;4.75;;
45296;SDS011;31040;51.622;10.420;2023-07-09T10:04:29;5.72;;;5.15;;
45296;SDS011;31040;51.622;10.420;2023-07-09T10:06:58;7.95;;;4.53;;
45296;SDS011;31040;51.622;10.420;2023-07-09T10:19:48;6.43;;;4.80;;
45296;SDS011;31040;51.622;10.420;2023-07-09T10:22:20;5.68;;;5.18;;
45296;SDS011;31040;51.622;10.420;2023-07-09T10:27:37;5.18;;;4.68;;
45296;SDS011;31040;51.622;10.420;2023-07-09T10:33:01;6.03;;;5.10;;
45296;SDS011;31040;51.622;10.420;2023-07-09T10:38:25;6.25;;;5.38;;
45296;SDS011;31040;51.622;10.420;2023-07-09T10:40:59;5.10;;;4.68;;
45296;SDS011;31040;51.622;10.420;2023-07-09T10:43:51;6.18;;;5.30;;
45296;SDS011;31040;51.622;10.420;2023-07-09T10:46:21;6.25;;;5.15;;
45296;SDS011;31040;51.622;10.420;2023-07-09T10:48:50;6.43;;;5.65;;
45296;SDS011;31040;51.622;10.420;2023-07-09T10:51:21;6.30;;;5.18;;
45296;SDS011;31040;51.622;10.420;2023-07-09T10:54:00;6.47;;;4.90;;
45296;SDS011;31040;51.622;10.420;2023-07-09T10:56:31;6.43;;;5.35;;
45296;SDS011;31040;51.622;10.420;2023-07-09T11:01:38;8.02;;;5.93;;
45296;SDS011;31040;51.622;10.420;2023-07-09T11:04:10;6.85;;;5.32;;
45296;SDS011;31040;51.622;10.420;2023-07-09T11:06:43;4.82;;;4.43;;
45296;SDS011;31040;51.622;10.420;2023-07-09T11:09:14;6.05;;;5.38;;
45296;SDS011;31040;51.622;10.420;2023-07-09T11:11:45;5.13;;;4.45;;
45296;SDS011;31040;51.622;10.420;2023-07-09T11:14:21;6.20;;;4.88;;
45296;SDS011;31040;51.622;10.420;2023-07-09T11:16:50;5.88;;;5.15;;
45296;SDS011;31040;51.622;10.420;2023-07-09T11:19:18;6.40;;;5.80;;
45296;SDS011;31040;51.622;10.420;2023-07-09T11:22:13;5.40;;;4.90;;
45296;SDS011;31040;51.622;10.420;2023-07-09T11:24:50;7.38;;;5.15;;
45296;SDS011;31040;51.622;10.420;2023-07-09T11:27:27;6.93;;;4.78;;
45296;SDS011;31040;51.622;10.420;2023-07-09T11:30:17;5.63;;;4.93;;
45296;SDS011;31040;51.622;10.420;2023-07-09T11:32:45;6.40;;;5.03;;
45296;SDS011;31040;51.622;10.420;2023-07-09T11:35:20;6.38;;;5.00;;
45296;SDS011;31040;51.622;10.420;2023-07-09T11:40:15;7.10;;;4.93;;
45296;SDS011;31040;51.622;10.420;2023-07-09T11:45:37;5.43;;;4.85;;
45296;SDS011;31040;51.622;10.420;2023-07-09T11:48:15;6.00;;;5.22;;
45296;SDS011;31040;51.622;10.420;2023-07-09T11:50:51;5.25;;;4.75;;
45296;SDS011;31040;51.622;10.420;2023-07-09T11:55:46;5.97;;;5.43;;
45296;SDS011;31040;51.622;10.420;2023-07-09T11:58:14;6.18;;;5.05;;
45296;SDS011;31040;51.622;10.420;2023-07-09T12:01:00;5.70;;;5.10;;
45296;SDS011;31040;51.622;10.420;2023-07-09T12:03:29;5.97;;;4.90;;
45296;SDS011;31040;51.622;10.420;2023-07-09T12:06:00;6.72;;;5.13;;
45296;SDS011;31040;51.622;10.420;2023-07-09T12:10:57;5.80;;;4.35;;
45296;SDS011;31040;51.622;10.420;2023-07-09T12:13:25;6.20;;;4.78;;
45296;SDS011;31040;51.622;10.420;2023-07-09T12:15:52;5.75;;;5.20;;
45296;SDS011;31040;51.622;10.420;2023-07-09T12:18:20;6.35;;;4.88;;
45296;SDS011;31040;51.622;10.420;2023-07-09T12:20:48;5.85;;;4.78;;
45296;SDS011;31040;51.622;10.420;2023-07-09T12:23:20;5.30;;;4.80;;
45296;SDS011;31040;51.622;10.420;2023-07-09T12:25:50;8.30;;;4.80;;
45296;SDS011;31040;51.622;10.420;2023-07-09T12:28:18;5.45;;;4.55;;
45296;SDS011;31040;51.622;10.420;2023-07-09T12:30:50;4.80;;;4.40;;
45296;SDS011;31040;51.622;10.420;2023-07-09T12:33:19;5.53;;;4.88;;
45296;SDS011;31040;51.622;10.420;2023-07-09T12:35:47;5.78;;;4.85;;
45296;SDS011;31040;51.622;10.420;2023-07-09T12:38:18;5.72;;;4.63;;
45296;SDS011;31040;51.622;10.420;2023-07-09T12:40:50;5.70;;;4.50;;
45296;SDS011;31040;51.622;10.420;2023-07-09T12:43:24;6.78;;;4.45;;
45296;SDS011;31040;51.622;10.420;2023-07-09T12:45:52;5.88;;;4.63;;
45296;SDS011;31040;51.622;10.420;2023-07-09T12:48:24;5.60;;;4.28;;
45296;SDS011;31040;51.622;10.420;2023-07-09T12:50:56;5.72;;;3.97;;
45296;SDS011;31040;51.622;10.420;2023-07-09T12:53:26;4.90;;;4.50;;
45296;SDS011;31040;51.622;10.420;2023-07-09T12:55:57;5.43;;;4.40;;
45296;SDS011;31040;51.622;10.420;2023-07-09T12:58:27;6.43;;;4.70;;
45296;SDS011;31040;51.622;10.420;2023-07-09T13:00:55;5.53;;;4.38;;
45296;SDS011;31040;51.622;10.420;2023-07-09T13:03:27;7.22;;;4.53;;
45296;SDS011;31040;51.622;10.420;2023-07-09T13:05:58;5.25;;;4.22;;
45296;SDS011;31040;51.622;10.420;2023-07-09T13:08:27;5.07;;;4.38;;
45296;SDS011;31040;51.622;10.420;2023-07-09T13:10:55;6.18;;;4.82;;
45296;SDS011;31040;51.622;10.420;2023-07-09T13:13:23;4.95;;;4.32;;
45296;SDS011;31040;51.622;10.420;2023-07-09T13:15:52;5.63;;;4.40;;
45296;SDS011;31040;51.622;10.420;2023-07-09T13:18:23;4.43;;;4.03;;
45296;SDS011;31040;51.622;10.420;2023-07-09T13:20:52;5.60;;;4.43;;
45296;SDS011;31040;51.622;10.420;2023-07-09T13:23:22;5.97;;;4.25;;
45296;SDS011;31040;51.622;10.420;2023-07-09T13:25:50;6.18;;;4.57;;
45296;SDS011;31040;51.622;10.420;2023-07-09T13:28:20;5.90;;;4.15;;
45296;SDS011;31040;51.622;10.420;2023-07-09T13:30:50;6.47;;;4.32;;
45296;SDS011;31040;51.622;10.420;2023-07-09T13:33:18;6.10;;;4.78;;
45296;SDS011;31040;51.622;10.420;2023-07-09T13:35:46;5.65;;;4.97;;
45296;SDS011;31040;51.622;10.420;2023-07-09T13:38:18;4.97;;;4.13;;
45296;SDS011;31040;51.622;10.420;2023-07-09T13:40:47;5.18;;;4.68;;
45296;SDS011;31040;51.622;10.420;2023-07-09T13:43:25;4.95;;;4.43;;
45296;SDS011;31040;51.622;10.420;2023-07-09T13:45:53;6.10;;;4.60;;
45296;SDS011;31040;51.622;10.420;2023-07-09T13:48:23;6.85;;;5.10;;
45296;SDS011;31040;51.622;10.420;2023-07-09T13:50:52;5.57;;;4.97;;
45296;SDS011;31040;51.622;10.420;2023-07-09T13:53:21;8.48;;;4.72;;
45296;SDS011;31040;51.622;10.420;2023-07-09T13:55:48;5.22;;;4.45;;
45296;SDS011;31040;51.622;10.420;2023-07-09T13:58:17;5.32;;;4.65;;
45296;SDS011;31040;51.622;10.420;2023-07-09T14:00:45;5.05;;;4.60;;
45296;SDS011;31040;51.622;10.420;2023-07-09T14:03:18;4.95;;;4.38;;
45296;SDS011;31040;51.622;10.420;2023-07-09T14:05:46;5.85;;;4.70;;
45296;SDS011;31040;51.622;10.420;2023-07-09T14:08:14;5.00;;;4.38;;
45296;SDS011;31040;51.622;10.420;2023-07-09T14:10:41;4.40;;;4.00;;
45296;SDS011;31040;51.622;10.420;2023-07-09T14:13:12;5.82;;;4.30;;
45296;SDS011;31040;51.622;10.420;2023-07-09T14:15:40;6.15;;;4.65;;
45296;SDS011;31040;51.622;10.420;2023-07-09T14:18:16;5.10;;;4.60;;
45296;SDS011;31040;51.622;10.420;2023-07-09T14:20:44;6.25;;;5.10;;
45296;SDS011;31040;51.622;10.420;2023-07-09T14:23:12;6.35;;;5.07;;
45296;SDS011;31040;51.622;10.420;2023-07-09T14:25:40;5.30;;;4.60;;
45296;SDS011;31040;51.622;10.420;2023-07-09T14:28:11;7.00;;;5.40;;
45296;SDS011;31040;51.622;10.420;2023-07-09T14:30:38;7.00;;;4.72;;
45296;SDS011;31040;51.622;10.420;2023-07-09T14:33:11;4.95;;;4.45;;
45296;SDS011;31040;51.622;10.420;2023-07-09T14:35:39;8.07;;;5.00;;
45296;SDS011;31040;51.622;10.420;2023-07-09T14:38:14;6.00;;;4.88;;
45296;SDS011;31040;51.622;10.420;2023-07-09T14:40:44;6.75;;;4.35;;
45296;SDS011;31040;51.622;10.420;2023-07-09T14:43:12;6.82;;;5.13;;
45296;SDS011;31040;51.622;10.420;2023-07-09T14:45:39;7.43;;;5.00;;
45296;SDS011;31040;51.622;10.420;2023-07-09T14:48:16;9.35;;;5.13;;
45296;SDS011;31040;51.622;10.420;2023-07-09T14:50:44;5.18;;;4.57;;
45296;SDS011;31040;51.622;10.420;2023-07-09T14:53:12;5.40;;;4.40;;
45296;SDS011;31040;51.622;10.420;2023-07-09T14:55:41;5.72;;;4.40;;
45296;SDS011;31040;51.622;10.420;2023-07-09T14:58:12;5.47;;;4.60;;
45296;SDS011;31040;51.622;10.420;2023-07-09T15:00:41;7.00;;;4.55;;
45296;SDS011;31040;51.622;10.420;2023-07-09T15:03:10;5.65;;;4.45;;
45296;SDS011;31040;51.622;10.420;2023-07-09T15:05:38;7.50;;;5.13;;
45296;SDS011;31040;51.622;10.420;2023-07-09T15:08:12;4.88;;;4.43;;
45296;SDS011;31040;51.622;10.420;2023-07-09T15:10:40;7.32;;;4.85;;
45296;SDS011;31040;51.622;10.420;2023-07-09T15:13:17;4.80;;;4.35;;
45296;SDS011;31040;51.622;10.420;2023-07-09T15:15:45;10.70;;;5.20;;
45296;SDS011;31040;51.622;10.420;2023-07-09T15:18:14;5.72;;;4.82;;
45296;SDS011;31040;51.622;10.420;2023-07-09T15:20:50;8.85;;;4.97;;
45296;SDS011;31040;51.622;10.420;2023-07-09T15:23:18;5.75;;;4.60;;
45296;SDS011;31040;51.622;10.420;2023-07-09T15:25:49;5.18;;;4.65;;
45296;SDS011;31040;51.622;10.420;2023-07-09T15:28:17;7.18;;;4.85;;
45296;SDS011;31040;51.622;10.420;2023-07-09T15:30:45;5.95;;;4.82;;
45296;SDS011;31040;51.622;10.420;2023-07-09T15:33:19;6.20;;;5.13;;
45296;SDS011;31040;51.622;10.420;2023-07-09T15:40:45;6.80;;;5.10;;
45296;SDS011;31040;51.622;10.420;2023-07-09T15:43:14;6.03;;;4.25;;